createdAt,value
2023-03-05T00:00:02.087Z,1013.47
2023-03-05T00:01:02.079Z,1013.43
2023-03-05T00:02:02.040Z,1013.48
2023-03-05T00:03:02.045Z,1013.45
2023-03-05T00:04:02.028Z,1013.46
2023-03-05T00:05:02.009Z,1013.46
2023-03-05T00:06:02.081Z,1013.45
2023-03-05T00:07:02.033Z,1013.45
2023-03-05T00:08:02.010Z,1013.42
2023-03-05T00:09:01.998Z,1013.46
2023-03-05T00:10:01.981Z,1013.48
2023-03-05T00:11:01.987Z,1013.48
2023-03-05T00:12:01.938Z,1013.47
2023-03-05T00:13:01.958Z,1013.50
2023-03-05T00:14:01.926Z,1013.47
2023-03-05T00:15:01.911Z,1013.43
2023-03-05T00:16:01.934Z,1013.49
2023-03-05T00:17:01.937Z,1013.42
2023-03-05T00:18:01.897Z,1013.43
2023-03-05T00:19:01.878Z,1013.42
2023-03-05T00:20:02.476Z,1013.45
2023-03-05T00:21:01.874Z,1013.44
2023-03-05T00:22:01.884Z,1013.44
2023-03-05T00:23:01.832Z,1013.48
2023-03-05T00:24:01.826Z,1013.46
2023-03-05T00:25:01.813Z,1013.47
2023-03-05T00:26:01.839Z,1013.48
2023-03-05T00:27:01.815Z,1013.45
2023-03-05T00:28:01.830Z,1013.48
2023-03-05T00:29:01.850Z,1013.46
2023-03-05T00:30:01.778Z,1013.48
2023-03-05T00:31:01.856Z,1013.46
2023-03-05T00:32:01.813Z,1013.46
2023-03-05T00:33:01.777Z,1013.47
2023-03-05T00:34:01.797Z,1013.44
2023-03-05T00:35:01.762Z,1013.47
2023-03-05T00:36:01.776Z,1013.46
2023-03-05T00:37:01.748Z,1013.42
2023-03-05T00:38:01.723Z,1013.41
2023-03-05T00:39:01.678Z,1013.41
2023-03-05T00:40:01.767Z,1013.39
2023-03-05T00:41:01.672Z,1013.42
2023-03-05T00:42:01.665Z,1013.33
2023-03-05T00:43:01.696Z,1013.40
2023-03-05T00:44:01.687Z,1013.41
2023-03-05T00:45:01.627Z,1013.40
2023-03-05T00:46:01.667Z,1013.36
2023-03-05T00:47:01.629Z,1013.35
2023-03-05T00:48:01.608Z,1013.36
2023-03-05T00:49:01.639Z,1013.32
2023-03-05T00:50:01.594Z,1013.30
2023-03-05T00:51:01.597Z,1013.29
2023-03-05T00:52:01.574Z,1013.30
2023-03-05T00:53:01.558Z,1013.29
2023-03-05T00:54:01.548Z,1013.31
2023-03-05T00:55:01.542Z,1013.27
2023-03-05T00:56:01.559Z,1013.33
2023-03-05T00:57:01.530Z,1013.29
2023-03-05T00:58:01.513Z,1013.25
2023-03-05T00:59:01.486Z,1013.27
2023-03-05T01:00:01.508Z,1013.26
2023-03-05T01:01:01.507Z,1013.21
2023-03-05T01:02:01.532Z,1013.22
2023-03-05T01:03:01.449Z,1013.20
2023-03-05T01:04:01.496Z,1013.27
2023-03-05T01:05:01.529Z,1013.18
2023-03-05T01:06:01.452Z,1013.16
2023-03-05T01:07:01.460Z,1013.15
2023-03-05T01:08:01.399Z,1013.20
2023-03-05T01:09:01.392Z,1013.15
2023-03-05T01:10:01.403Z,1013.16
2023-03-05T01:11:01.368Z,1013.15
2023-03-05T01:12:01.399Z,1013.08
2023-03-05T01:13:01.388Z,1013.08
2023-03-05T01:14:01.340Z,1013.09
2023-03-05T01:15:01.377Z,1013.06
2023-03-05T01:16:01.363Z,1013.11
2023-03-05T01:17:01.303Z,1013.07
2023-03-05T01:18:01.302Z,1013.10
2023-03-05T01:19:01.276Z,1013.06
2023-03-05T01:20:01.303Z,1013.06
2023-03-05T01:21:01.304Z,1013.03
2023-03-05T01:22:01.317Z,1013.04
2023-03-05T01:23:01.265Z,1013.05
2023-03-05T01:24:01.252Z,1013.03
2023-03-05T01:25:01.272Z,1013.02
2023-03-05T01:26:01.204Z,1013.01
2023-03-05T01:27:01.217Z,1013.03
2023-03-05T01:28:01.209Z,1013.03
2023-03-05T01:29:01.228Z,1013.01
2023-03-05T01:30:01.201Z,1013.00
2023-03-05T01:31:01.169Z,1012.98
2023-03-05T01:32:01.191Z,1012.99
2023-03-05T01:33:01.164Z,1012.96
2023-03-05T01:34:01.142Z,1012.97
2023-03-05T01:35:01.130Z,1012.95
2023-03-05T01:36:01.124Z,1012.94
2023-03-05T01:37:01.156Z,1012.95
2023-03-05T01:38:01.137Z,1012.90
2023-03-05T01:39:01.090Z,1012.91
2023-03-05T01:40:01.128Z,1012.92
2023-03-05T01:41:01.110Z,1012.89
2023-03-05T01:42:01.066Z,1012.91
2023-03-05T01:43:01.076Z,1012.88
2023-03-05T01:44:01.101Z,1012.86
2023-03-05T01:45:01.086Z,1012.86
2023-03-05T01:46:01.056Z,1012.83
2023-03-05T01:47:01.065Z,1012.84
2023-03-05T01:48:01.034Z,1012.87
2023-03-05T01:49:00.996Z,1012.84
2023-03-05T01:50:01.013Z,1012.83
2023-03-05T01:51:00.996Z,1012.82
2023-03-05T01:52:00.964Z,1012.79
2023-03-05T01:53:00.991Z,1012.81
2023-03-05T01:54:00.972Z,1012.80
2023-03-05T01:55:00.940Z,1012.79
2023-03-05T01:56:00.935Z,1012.78
2023-03-05T01:57:00.938Z,1012.77
2023-03-05T01:58:00.922Z,1012.72
2023-03-05T01:59:00.896Z,1012.72
2023-03-05T02:00:00.893Z,1012.68
2023-03-05T02:01:00.976Z,1012.69
2023-03-05T02:02:00.939Z,1012.69
2023-03-05T02:03:00.869Z,1012.62
2023-03-05T02:04:00.924Z,1012.63
2023-03-05T02:05:00.867Z,1012.60
2023-03-05T02:06:00.830Z,1012.63
2023-03-05T02:07:00.832Z,1012.64
2023-03-05T02:08:00.805Z,1012.61
2023-03-05T02:09:00.846Z,1012.62
2023-03-05T02:10:00.844Z,1012.60
2023-03-05T02:11:00.782Z,1012.59
2023-03-05T02:12:00.771Z,1012.58
2023-03-05T02:13:00.762Z,1012.57
2023-03-05T02:14:00.783Z,1012.54
2023-03-05T02:15:00.752Z,1012.53
2023-03-05T02:16:00.740Z,1012.48
2023-03-05T02:17:00.779Z,1012.49
2023-03-05T02:18:00.716Z,1012.51
2023-03-05T02:19:00.761Z,1012.46
2023-03-05T02:20:00.720Z,1012.44
2023-03-05T02:21:00.746Z,1012.44
2023-03-05T02:22:00.683Z,1012.44
2023-03-05T02:23:00.666Z,1012.47
2023-03-05T02:24:00.701Z,1012.44
2023-03-05T02:25:00.691Z,1012.43
2023-03-05T02:26:00.646Z,1012.38
2023-03-05T02:27:00.629Z,1012.42
2023-03-05T02:28:00.652Z,1012.39
2023-03-05T02:29:00.616Z,1012.38
2023-03-05T02:30:00.699Z,1012.38
2023-03-05T02:31:00.616Z,1012.32
2023-03-05T02:32:00.645Z,1012.35
2023-03-05T02:33:00.629Z,1012.32
2023-03-05T02:34:00.576Z,1012.31
2023-03-05T02:35:00.572Z,1012.31
2023-03-05T02:36:00.637Z,1012.34
2023-03-05T02:37:00.551Z,1012.26
2023-03-05T02:38:00.555Z,1012.29
2023-03-05T02:39:00.565Z,1012.25
2023-03-05T02:40:00.548Z,1012.26
2023-03-05T02:41:00.521Z,1012.20
2023-03-05T02:42:00.500Z,1012.26
2023-03-05T02:43:00.506Z,1012.22
2023-03-05T02:44:00.545Z,1012.20
2023-03-05T02:45:00.452Z,1012.17
2023-03-05T02:46:00.480Z,1012.15
2023-03-05T02:47:00.501Z,1012.13
2023-03-05T02:48:00.442Z,1012.11
2023-03-05T02:49:00.455Z,1012.13
2023-03-05T02:50:00.410Z,1012.14
2023-03-05T02:51:00.401Z,1012.12
2023-03-05T02:52:00.413Z,1012.16
2023-03-05T02:53:00.390Z,1012.13
2023-03-05T02:54:00.414Z,1012.07
2023-03-05T02:55:00.379Z,1012.09
2023-03-05T02:56:00.408Z,1012.06
2023-03-05T02:57:00.373Z,1012.07
2023-03-05T02:58:00.339Z,1012.06
2023-03-05T02:59:00.360Z,1012.06
2023-03-05T03:00:00.329Z,1012.08
2023-03-05T03:01:00.361Z,1012.07
2023-03-05T03:02:00.329Z,1012.04
2023-03-05T03:03:00.326Z,1012.09
2023-03-05T03:04:00.271Z,1012.04
2023-03-05T03:05:00.271Z,1012.02
2023-03-05T03:06:00.282Z,1012.05
2023-03-05T03:07:00.284Z,1012.02
2023-03-05T03:08:00.241Z,1012.03
2023-03-05T03:09:00.232Z,1012.00
2023-03-05T03:10:00.217Z,1011.96
2023-03-05T03:11:00.245Z,1011.99
2023-03-05T03:12:00.223Z,1011.93
2023-03-05T03:13:00.214Z,1011.94
2023-03-05T03:14:00.184Z,1011.94
2023-03-05T03:15:00.181Z,1011.94
2023-03-05T03:16:00.190Z,1011.97
2023-03-05T03:17:00.223Z,1011.93
2023-03-05T03:18:00.150Z,1011.93
2023-03-05T03:19:00.138Z,1011.93
2023-03-05T03:20:00.167Z,1011.95
2023-03-05T03:21:00.122Z,1011.89
2023-03-05T03:22:00.109Z,1011.92
2023-03-05T03:23:00.113Z,1011.91
2023-03-05T03:24:00.152Z,1011.89
2023-03-05T03:25:00.111Z,1011.83
2023-03-05T03:26:00.125Z,1011.87
2023-03-05T03:27:00.103Z,1011.90
2023-03-05T03:28:00.054Z,1011.89
2023-03-05T03:29:00.042Z,1011.86
2023-03-05T03:30:00.098Z,1011.88
2023-03-05T03:31:00.060Z,1011.87
2023-03-05T03:32:00.076Z,1011.92
2023-03-05T03:33:00.016Z,1011.93
2023-03-05T03:34:00.038Z,1011.89
2023-03-05T03:35:00.009Z,1011.90
2023-03-05T03:36:00.012Z,1011.92
2023-03-05T03:36:59.995Z,1011.92
2023-03-05T03:37:59.961Z,1011.89
2023-03-05T03:38:59.971Z,1011.88
2023-03-05T03:39:59.937Z,1011.90
2023-03-05T03:40:59.992Z,1011.85
2023-03-05T03:41:59.936Z,1011.85
2023-03-05T03:42:59.928Z,1011.84
2023-03-05T03:43:59.931Z,1011.84
2023-03-05T03:44:59.898Z,1011.79
2023-03-05T03:45:59.949Z,1011.80
2023-03-05T03:46:59.910Z,1011.80
2023-03-05T03:47:59.860Z,1011.84
2023-03-05T03:48:59.869Z,1011.81
2023-03-05T03:49:59.848Z,1011.79
2023-03-05T03:50:59.867Z,1011.81
2023-03-05T03:51:59.824Z,1011.75
2023-03-05T03:52:59.810Z,1011.76
2023-03-05T03:53:59.819Z,1011.74
2023-03-05T03:54:59.804Z,1011.75
2023-03-05T03:55:59.816Z,1011.70
2023-03-05T03:56:59.814Z,1011.71
2023-03-05T03:57:59.796Z,1011.68
2023-03-05T03:58:59.806Z,1011.66
2023-03-05T03:59:59.749Z,1011.70
2023-03-05T04:00:59.740Z,1011.66
2023-03-05T04:01:59.742Z,1011.64
2023-03-05T04:02:59.742Z,1011.64
2023-03-05T04:03:59.746Z,1011.63
2023-03-05T04:04:59.710Z,1011.60
2023-03-05T04:05:59.691Z,1011.57
2023-03-05T04:06:59.676Z,1011.61
2023-03-05T04:07:59.664Z,1011.62
2023-03-05T04:08:59.663Z,1011.55
2023-03-05T04:09:59.647Z,1011.57
2023-03-05T04:10:59.661Z,1011.56
2023-03-05T04:11:59.654Z,1011.52
2023-03-05T04:12:59.630Z,1011.54
2023-03-05T04:13:59.600Z,1011.53
2023-03-05T04:14:59.594Z,1011.48
2023-03-05T04:15:59.622Z,1011.47
2023-03-05T04:16:59.592Z,1011.52
2023-03-05T04:17:59.571Z,1011.48
2023-03-05T04:18:59.577Z,1011.50
2023-03-05T04:19:59.591Z,1011.50
2023-03-05T04:20:59.542Z,1011.46
2023-03-05T04:21:59.551Z,1011.48
2023-03-05T04:22:59.535Z,1011.43
2023-03-05T04:23:59.540Z,1011.41
2023-03-05T04:24:59.533Z,1011.43
2023-03-05T04:25:59.484Z,1011.42
2023-03-05T04:26:59.501Z,1011.42
2023-03-05T04:27:59.492Z,1011.41
2023-03-05T04:28:59.462Z,1011.41
2023-03-05T04:29:59.440Z,1011.39
2023-03-05T04:30:59.540Z,1011.37
2023-03-05T04:31:59.483Z,1011.41
2023-03-05T04:32:59.415Z,1011.40
2023-03-05T04:33:59.423Z,1011.36
2023-03-05T04:34:59.471Z,1011.38
2023-03-05T04:35:59.473Z,1011.33
2023-03-05T04:36:59.435Z,1011.27
2023-03-05T04:37:59.392Z,1011.31
2023-03-05T04:38:59.353Z,1011.30
2023-03-05T04:39:59.342Z,1011.26
2023-03-05T04:40:59.347Z,1011.26
2023-03-05T04:41:59.341Z,1011.24
2023-03-05T04:42:59.393Z,1011.27
2023-03-05T04:43:59.327Z,1011.28
2023-03-05T04:44:59.312Z,1011.24
2023-03-05T04:45:59.310Z,1011.26
2023-03-05T04:46:59.270Z,1011.25
2023-03-05T04:47:59.317Z,1011.22
2023-03-05T04:48:59.288Z,1011.19
2023-03-05T04:49:59.250Z,1011.19
2023-03-05T04:50:59.236Z,1011.20
2023-03-05T04:51:59.250Z,1011.21
2023-03-05T04:52:59.222Z,1011.16
2023-03-05T04:53:59.251Z,1011.16
2023-03-05T04:54:59.207Z,1011.15
2023-03-05T04:55:59.204Z,1011.15
2023-03-05T04:56:59.181Z,1011.19
2023-03-05T04:57:59.243Z,1011.15
2023-03-05T04:58:59.181Z,1011.12
2023-03-05T04:59:59.160Z,1011.12
2023-03-05T05:00:59.142Z,1011.12
2023-03-05T05:01:59.204Z,1011.12
2023-03-05T05:02:59.246Z,1011.10
2023-03-05T05:03:59.132Z,1011.10
2023-03-05T05:04:59.117Z,1011.06
2023-03-05T05:05:59.082Z,1011.06
2023-03-05T05:06:59.083Z,1011.04
2023-03-05T05:07:59.065Z,1011.02
2023-03-05T05:08:59.057Z,1011.04
2023-03-05T05:09:59.043Z,1011.02
2023-03-05T05:10:59.062Z,1010.99
2023-03-05T05:11:59.041Z,1010.98
2023-03-05T05:12:59.023Z,1010.99
2023-03-05T05:13:59.007Z,1010.95
2023-03-05T05:14:59.055Z,1010.94
2023-03-05T05:15:59.035Z,1010.94
2023-03-05T05:16:58.984Z,1010.96
2023-03-05T05:17:58.974Z,1010.95
2023-03-05T05:18:58.982Z,1010.94
2023-03-05T05:19:59.001Z,1010.93
2023-03-05T05:20:58.975Z,1010.91
2023-03-05T05:21:58.962Z,1010.92
2023-03-05T05:22:58.923Z,1010.91
2023-03-05T05:23:58.940Z,1010.88
2023-03-05T05:24:58.933Z,1010.87
2023-03-05T05:25:58.895Z,1010.89
2023-03-05T05:26:58.879Z,1010.85
2023-03-05T05:27:58.902Z,1010.85
2023-03-05T05:28:58.861Z,1010.88
2023-03-05T05:29:58.870Z,1010.81
2023-03-05T05:30:58.848Z,1010.84
2023-03-05T05:31:58.852Z,1010.79
2023-03-05T05:32:58.825Z,1010.85
2023-03-05T05:33:58.838Z,1010.84
2023-03-05T05:34:58.811Z,1010.87
2023-03-05T05:35:58.853Z,1010.89
2023-03-05T05:36:58.792Z,1010.88
2023-03-05T05:37:58.813Z,1010.93
2023-03-05T05:38:58.774Z,1010.94
2023-03-05T05:39:58.790Z,1010.92
2023-03-05T05:40:58.764Z,1010.90
2023-03-05T05:41:58.759Z,1010.93
2023-03-05T05:42:58.741Z,1010.85
2023-03-05T05:43:58.744Z,1010.89
2023-03-05T05:44:58.733Z,1010.86
2023-03-05T05:45:58.856Z,1010.87
2023-03-05T05:46:58.694Z,1010.89
2023-03-05T05:47:58.688Z,1010.85
2023-03-05T05:48:58.670Z,1010.84
2023-03-05T05:49:58.716Z,1010.84
2023-03-05T05:50:58.717Z,1010.82
2023-03-05T05:51:58.660Z,1010.81
2023-03-05T05:52:58.641Z,1010.84
2023-03-05T05:53:58.679Z,1010.83
2023-03-05T05:54:58.666Z,1010.80
2023-03-05T05:55:58.642Z,1010.79
2023-03-05T05:56:58.656Z,1010.80
2023-03-05T05:57:58.628Z,1010.81
2023-03-05T05:58:58.598Z,1010.79
2023-03-05T05:59:58.594Z,1010.80
2023-03-05T06:00:58.583Z,1010.80
2023-03-05T06:01:58.618Z,1010.78
2023-03-05T06:02:58.571Z,1010.78
2023-03-05T06:03:58.549Z,1010.79
2023-03-05T06:04:58.538Z,1010.81
2023-03-05T06:05:58.509Z,1010.79
2023-03-05T06:06:58.496Z,1010.86
2023-03-05T06:07:58.520Z,1010.86
2023-03-05T06:08:58.485Z,1010.89
2023-03-05T06:09:58.470Z,1010.90
2023-03-05T06:10:58.472Z,1010.87
2023-03-05T06:11:58.458Z,1010.89
2023-03-05T06:12:58.447Z,1010.87
2023-03-05T06:13:58.465Z,1010.85
2023-03-05T06:14:58.468Z,1010.84
2023-03-05T06:15:58.448Z,1010.82
2023-03-05T06:16:58.425Z,1010.83
2023-03-05T06:17:58.421Z,1010.82
2023-03-05T06:18:58.423Z,1010.81
2023-03-05T06:19:58.404Z,1010.86
2023-03-05T06:20:58.388Z,1010.90
2023-03-05T06:21:58.412Z,1010.85
2023-03-05T06:22:58.375Z,1010.87
2023-03-05T06:23:58.342Z,1010.88
2023-03-05T06:24:58.364Z,1010.86
2023-03-05T06:25:58.341Z,1010.88
2023-03-05T06:26:58.328Z,1010.93
2023-03-05T06:27:58.324Z,1010.97
2023-03-05T06:28:58.290Z,1010.94
2023-03-05T06:29:58.312Z,1010.92
2023-03-05T06:30:58.316Z,1010.95
2023-03-05T06:31:58.320Z,1010.94
2023-03-05T06:32:58.275Z,1010.94
2023-03-05T06:33:58.257Z,1010.96
2023-03-05T06:34:58.222Z,1010.89
2023-03-05T06:35:58.263Z,1010.94
2023-03-05T06:36:58.240Z,1010.93
2023-03-05T06:37:58.241Z,1010.92
2023-03-05T06:38:58.183Z,1010.91
2023-03-05T06:39:58.185Z,1010.93
2023-03-05T06:40:58.190Z,1010.89
2023-03-05T06:41:58.178Z,1010.89
2023-03-05T06:42:58.176Z,1010.92
2023-03-05T06:43:58.140Z,1010.89
2023-03-05T06:44:58.159Z,1010.87
2023-03-05T06:45:58.180Z,1010.92
2023-03-05T06:46:58.116Z,1010.91
2023-03-05T06:47:58.098Z,1010.87
2023-03-05T06:48:58.084Z,1010.88
2023-03-05T06:49:58.070Z,1010.85
2023-03-05T06:50:58.069Z,1010.85
2023-03-05T06:51:58.062Z,1010.88
2023-03-05T06:52:58.083Z,1010.86
2023-03-05T06:53:58.059Z,1010.86
2023-03-05T06:54:58.061Z,1010.87
2023-03-05T06:55:58.015Z,1010.87
2023-03-05T06:56:58.025Z,1010.85
2023-03-05T06:57:58.009Z,1010.85
2023-03-05T06:58:58.010Z,1010.86
2023-03-05T06:59:57.988Z,1010.89
2023-03-05T07:00:58.030Z,1010.88
2023-03-05T07:01:58.018Z,1010.82
2023-03-05T07:02:57.951Z,1010.83
2023-03-05T07:03:57.968Z,1010.88
2023-03-05T07:04:57.975Z,1010.84
2023-03-05T07:05:57.941Z,1010.87
2023-03-05T07:06:57.912Z,1010.84
2023-03-05T07:07:57.937Z,1010.82
2023-03-05T07:08:57.933Z,1010.81
2023-03-05T07:09:57.881Z,1010.78
2023-03-05T07:10:57.885Z,1010.77
2023-03-05T07:11:57.883Z,1010.75
2023-03-05T07:12:57.863Z,1010.76
2023-03-05T07:13:57.877Z,1010.73
2023-03-05T07:14:57.834Z,1010.78
2023-03-05T07:15:57.925Z,1010.73
2023-03-05T07:16:57.812Z,1010.80
2023-03-05T07:17:57.796Z,1010.80
2023-03-05T07:18:57.786Z,1010.78
2023-03-05T07:19:57.783Z,1010.82
2023-03-05T07:20:57.801Z,1010.77
2023-03-05T07:21:57.799Z,1010.78
2023-03-05T07:22:57.787Z,1010.77
2023-03-05T07:23:57.766Z,1010.75
2023-03-05T07:24:57.733Z,1010.78
2023-03-05T07:25:57.729Z,1010.75
2023-03-05T07:26:57.708Z,1010.73
2023-03-05T07:27:57.710Z,1010.73
2023-03-05T07:28:57.718Z,1010.76
2023-03-05T07:29:57.696Z,1010.73
2023-03-05T07:30:57.768Z,1010.74
2023-03-05T07:31:57.681Z,1010.72
2023-03-05T07:32:57.650Z,1010.73
2023-03-05T07:33:57.660Z,1010.70
2023-03-05T07:34:57.654Z,1010.68
2023-03-05T07:35:57.644Z,1010.72
2023-03-05T07:36:57.617Z,1010.70
2023-03-05T07:37:57.605Z,1010.65
2023-03-05T07:38:57.617Z,1010.63
2023-03-05T07:39:57.607Z,1010.67
2023-03-05T07:40:57.566Z,1010.63
2023-03-05T07:41:57.575Z,1010.68
2023-03-05T07:42:57.583Z,1010.67
2023-03-05T07:43:57.567Z,1010.66
2023-03-05T07:44:57.532Z,1010.64
2023-03-05T07:45:57.529Z,1010.59
2023-03-05T07:46:57.513Z,1010.62
2023-03-05T07:47:57.496Z,1010.61
2023-03-05T07:48:57.512Z,1010.62
2023-03-05T07:49:57.478Z,1010.63
2023-03-05T07:50:57.540Z,1010.61
2023-03-05T07:51:57.458Z,1010.59
2023-03-05T07:52:57.456Z,1010.55
2023-03-05T07:53:57.447Z,1010.59
2023-03-05T07:54:57.428Z,1010.57
2023-03-05T07:55:57.420Z,1010.57
2023-03-05T07:56:57.428Z,1010.55
2023-03-05T07:57:57.398Z,1010.56
2023-03-05T07:58:57.411Z,1010.59
2023-03-05T07:59:57.440Z,1010.58
2023-03-05T08:00:57.382Z,1010.55
2023-03-05T08:01:57.363Z,1010.53
2023-03-05T08:02:57.353Z,1010.52
2023-03-05T08:03:57.403Z,1010.54
2023-03-05T08:04:57.327Z,1010.57
2023-03-05T08:05:57.360Z,1010.53
2023-03-05T08:06:57.316Z,1010.55
2023-03-05T08:07:57.308Z,1010.52
2023-03-05T08:08:57.292Z,1010.53
2023-03-05T08:09:57.296Z,1010.49
2023-03-05T08:10:57.315Z,1010.52
2023-03-05T08:11:57.258Z,1010.43
2023-03-05T08:12:57.251Z,1010.44
2023-03-05T08:13:57.269Z,1010.45
2023-03-05T08:14:57.228Z,1010.41
2023-03-05T08:15:57.287Z,1010.42
2023-03-05T08:16:57.261Z,1010.37
2023-03-05T08:17:57.264Z,1010.36
2023-03-05T08:18:57.222Z,1010.35
2023-03-05T08:19:57.181Z,1010.36
2023-03-05T08:20:57.171Z,1010.30
2023-03-05T08:21:57.183Z,1010.33
2023-03-05T08:22:57.166Z,1010.29
2023-03-05T08:23:57.147Z,1010.30
2023-03-05T08:24:57.143Z,1010.28
2023-03-05T08:25:57.144Z,1010.29
2023-03-05T08:26:57.120Z,1010.25
2023-03-05T08:27:57.113Z,1010.28
2023-03-05T08:28:57.108Z,1010.27
2023-03-05T08:29:57.129Z,1010.30
2023-03-05T08:30:57.104Z,1010.26
2023-03-05T08:31:57.074Z,1010.30
2023-03-05T08:32:57.087Z,1010.31
2023-03-05T08:33:57.046Z,1010.27
2023-03-05T08:34:57.040Z,1010.22
2023-03-05T08:35:57.046Z,1010.23
2023-03-05T08:36:57.015Z,1010.23
2023-03-05T08:37:57.004Z,1010.26
2023-03-05T08:38:57.000Z,1010.21
2023-03-05T08:39:56.999Z,1010.22
2023-03-05T08:40:56.980Z,1010.23
2023-03-05T08:41:56.974Z,1010.27
2023-03-05T08:42:56.957Z,1010.22
2023-03-05T08:43:56.953Z,1010.19
2023-03-05T08:44:56.951Z,1010.20
2023-03-05T08:45:56.927Z,1010.19
2023-03-05T08:46:56.955Z,1010.19
2023-03-05T08:47:56.910Z,1010.16
2023-03-05T08:48:56.951Z,1010.20
2023-03-05T08:49:56.936Z,1010.14
2023-03-05T08:50:56.953Z,1010.17
2023-03-05T08:51:56.880Z,1010.17
2023-03-05T08:52:56.880Z,1010.16
2023-03-05T08:53:56.884Z,1010.16
2023-03-05T08:54:56.863Z,1010.11
2023-03-05T08:55:56.862Z,1010.12
2023-03-05T08:56:56.828Z,1010.14
2023-03-05T08:57:56.832Z,1010.11
2023-03-05T08:58:56.833Z,1010.08
2023-03-05T08:59:56.839Z,1010.08
2023-03-05T09:00:56.814Z,1010.05
2023-03-05T09:01:56.907Z,1010.06
2023-03-05T09:02:56.842Z,1010.05
2023-03-05T09:03:56.764Z,1010.08
2023-03-05T09:04:56.777Z,1010.02
2023-03-05T09:05:56.748Z,1010.02
2023-03-05T09:06:56.736Z,1009.98
2023-03-05T09:07:56.744Z,1010.03
2023-03-05T09:08:56.734Z,1010.03
2023-03-05T09:09:56.726Z,1009.96
2023-03-05T09:10:56.703Z,1009.99
2023-03-05T09:11:56.686Z,1009.96
2023-03-05T09:12:56.670Z,1009.96
2023-03-05T09:13:56.669Z,1009.96
2023-03-05T09:14:56.681Z,1009.93
2023-03-05T09:15:56.713Z,1009.91
2023-03-05T09:16:56.659Z,1009.95
2023-03-05T09:17:56.635Z,1009.95
2023-03-05T09:18:56.636Z,1009.94
2023-03-05T09:19:56.611Z,1009.92
2023-03-05T09:20:56.633Z,1009.93
2023-03-05T09:21:57.151Z,1009.93
2023-03-05T09:22:56.597Z,1009.94
2023-03-05T09:23:56.570Z,1009.93
2023-03-05T09:24:56.613Z,1009.95
2023-03-05T09:25:56.565Z,1009.94
2023-03-05T09:26:56.548Z,1009.87
2023-03-05T09:27:56.554Z,1009.86
2023-03-05T09:28:56.564Z,1009.86
2023-03-05T09:29:56.532Z,1009.85
2023-03-05T09:30:56.588Z,1009.85
2023-03-05T09:31:56.590Z,1009.84
2023-03-05T09:32:56.500Z,1009.87
2023-03-05T09:33:56.515Z,1009.82
2023-03-05T09:34:56.507Z,1009.81
2023-03-05T09:35:56.512Z,1009.79
2023-03-05T09:36:56.489Z,1009.80
2023-03-05T09:37:56.451Z,1009.80
2023-03-05T09:38:56.437Z,1009.78
2023-03-05T09:39:56.425Z,1009.81
2023-03-05T09:40:56.447Z,1009.78
2023-03-05T09:41:56.422Z,1009.77
2023-03-05T09:42:56.390Z,1009.72
2023-03-05T09:43:56.396Z,1009.74
2023-03-05T09:44:56.422Z,1009.74
2023-03-05T09:45:56.432Z,1009.77
2023-03-05T09:46:56.407Z,1009.72
2023-03-05T09:47:56.341Z,1009.69
2023-03-05T09:48:56.377Z,1009.69
2023-03-05T09:49:56.362Z,1009.72
2023-03-05T09:50:56.312Z,1009.71
2023-03-05T09:51:56.345Z,1009.70
2023-03-05T09:52:56.286Z,1009.67
2023-03-05T09:53:56.363Z,1009.68
2023-03-05T09:54:56.338Z,1009.65
2023-03-05T09:55:56.268Z,1009.66
2023-03-05T09:56:56.253Z,1009.69
2023-03-05T09:57:56.292Z,1009.69
2023-03-05T09:58:56.364Z,1009.66
2023-03-05T09:59:56.226Z,1009.65
2023-03-05T10:00:56.229Z,1009.62
2023-03-05T10:01:56.229Z,1009.55
2023-03-05T10:02:56.236Z,1009.54
2023-03-05T10:03:56.205Z,1009.56
2023-03-05T10:04:56.186Z,1009.53
2023-03-05T10:05:56.179Z,1009.52
2023-03-05T10:06:56.177Z,1009.54
2023-03-05T10:07:56.177Z,1009.50
2023-03-05T10:08:56.174Z,1009.47
2023-03-05T10:09:56.136Z,1009.49
2023-03-05T10:10:56.129Z,1009.47
2023-03-05T10:11:56.113Z,1009.43
2023-03-05T10:12:56.131Z,1009.49
2023-03-05T10:13:56.106Z,1009.45
2023-03-05T10:14:56.096Z,1009.45
2023-03-05T10:15:56.138Z,1009.47
2023-03-05T10:16:56.164Z,1009.44
2023-03-05T10:17:56.061Z,1009.45
2023-03-05T10:18:56.076Z,1009.38
2023-03-05T10:19:56.092Z,1009.46
2023-03-05T10:20:56.060Z,1009.42
2023-03-05T10:21:56.030Z,1009.41
2023-03-05T10:22:56.056Z,1009.41
2023-03-05T10:23:56.021Z,1009.38
2023-03-05T10:24:56.036Z,1009.37
2023-03-05T10:25:56.013Z,1009.36
2023-03-05T10:26:56.038Z,1009.37
2023-03-05T10:27:55.965Z,1009.32
2023-03-05T10:28:55.980Z,1009.30
2023-03-05T10:29:55.953Z,1009.27
2023-03-05T10:30:55.978Z,1009.22
2023-03-05T10:31:55.942Z,1009.21
2023-03-05T10:32:55.939Z,1009.19
2023-03-05T10:33:55.909Z,1009.17
2023-03-05T10:34:55.898Z,1009.18
2023-03-05T10:35:55.923Z,1009.13
2023-03-05T10:36:58.154Z,1009.13
2023-03-05T10:37:55.875Z,1009.10
2023-03-05T10:38:55.863Z,1009.06
2023-03-05T10:39:55.919Z,1009.08
2023-03-05T10:40:55.843Z,1009.06
2023-03-05T10:41:55.859Z,1008.98
2023-03-05T10:42:55.830Z,1009.04
2023-03-05T10:43:55.829Z,1008.98
2023-03-05T10:44:55.850Z,1008.98
2023-03-05T10:45:55.846Z,1008.99
2023-03-05T10:46:56.067Z,1008.95
2023-03-05T10:47:55.774Z,1008.92
2023-03-05T10:48:55.774Z,1008.89
2023-03-05T10:49:55.752Z,1008.90
2023-03-05T10:50:55.769Z,1008.95
2023-03-05T10:51:55.764Z,1008.91
2023-03-05T10:52:55.774Z,1008.92
2023-03-05T10:53:55.757Z,1008.94
2023-03-05T10:54:55.741Z,1008.93
2023-03-05T10:55:55.701Z,1008.94
2023-03-05T10:56:55.776Z,1008.95
2023-03-05T10:57:55.734Z,1008.90
2023-03-05T10:58:55.714Z,1008.92
2023-03-05T10:59:55.671Z,1008.91
2023-03-05T11:00:55.713Z,1008.89
2023-03-05T11:01:55.687Z,1008.88
2023-03-05T11:02:55.661Z,1008.85
2023-03-05T11:03:55.647Z,1008.81
2023-03-05T11:04:55.680Z,1008.83
2023-03-05T11:05:56.669Z,1008.83
2023-03-05T11:08:29.111Z,1008.82
2023-03-05T11:09:29.104Z,1008.78
2023-03-05T11:11:23.212Z,1008.78
2023-03-05T11:12:23.237Z,1008.74
2023-03-05T11:14:18.287Z,1008.73
2023-03-05T11:15:18.263Z,1008.73
2023-03-05T11:17:13.343Z,1008.68
2023-03-05T11:18:13.321Z,1008.68
2023-03-05T11:20:08.423Z,1008.69
2023-03-05T11:21:08.416Z,1008.63
2023-03-05T11:23:03.547Z,1008.68
2023-03-05T11:24:03.527Z,1008.65
2023-03-05T11:25:58.751Z,1008.61
2023-03-05T11:26:58.736Z,1008.58
2023-03-05T11:28:53.844Z,1008.59
2023-03-05T11:29:53.858Z,1008.61
2023-03-05T11:31:48.599Z,1008.58
2023-03-05T11:32:48.586Z,1008.60
2023-03-05T11:34:43.667Z,1008.58
2023-03-05T11:35:43.665Z,1008.59
2023-03-05T11:37:38.006Z,1008.53
2023-03-05T11:38:37.989Z,1008.56
2023-03-05T11:41:24.829Z,1008.55
2023-03-05T11:42:24.790Z,1008.57
2023-03-05T11:44:19.946Z,1008.55
2023-03-05T11:45:19.915Z,1008.50
2023-03-05T11:47:15.043Z,1008.52
2023-03-05T11:48:15.000Z,1008.51
2023-03-05T11:50:10.204Z,1008.51
2023-03-05T11:51:10.195Z,1008.52
2023-03-05T11:53:05.297Z,1008.49
2023-03-05T11:54:05.479Z,1008.50
2023-03-05T11:56:00.474Z,1008.45
2023-03-05T11:57:00.307Z,1008.45
2023-03-05T11:58:55.414Z,1008.45
2023-03-05T11:59:55.369Z,1008.44
2023-03-05T12:01:50.236Z,1008.42
2023-03-05T12:02:50.262Z,1008.41
2023-03-05T12:04:44.327Z,1008.41
2023-03-05T12:05:44.320Z,1008.40
2023-03-05T12:07:39.646Z,1008.39
2023-03-05T12:08:39.589Z,1008.42
2023-03-05T12:10:34.773Z,1008.35
2023-03-05T12:11:34.752Z,1008.33
2023-03-05T12:13:28.835Z,1008.31
2023-03-05T12:14:28.829Z,1008.30
2023-03-05T12:16:22.967Z,1008.26
2023-03-05T12:17:22.889Z,1008.24
2023-03-05T12:19:18.516Z,1008.17
2023-03-05T12:20:17.960Z,1008.16
2023-03-05T12:22:12.188Z,1008.14
2023-03-05T12:23:12.164Z,1008.12
2023-03-05T12:25:06.374Z,1008.12
2023-03-05T12:26:06.300Z,1008.07
2023-03-05T12:28:00.434Z,1007.98
2023-03-05T12:29:00.412Z,1007.96
2023-03-05T12:30:54.154Z,1007.92
2023-03-05T12:31:54.141Z,1007.95
2023-03-05T12:33:50.260Z,1007.88